createdAt,value
2023-04-24T00:01:02.788Z,15.27
2023-04-24T00:03:30.214Z,15.43
2023-04-24T00:05:57.077Z,14.98
2023-04-24T00:08:24.667Z,15.40
2023-04-24T00:10:52.951Z,14.68
2023-04-24T00:13:19.689Z,13.90
2023-04-24T00:15:46.339Z,15.32
2023-04-24T00:18:13.194Z,16.65
2023-04-24T00:20:40.512Z,16.90
2023-04-24T00:23:07.275Z,17.85
2023-04-24T00:25:33.907Z,16.70
2023-04-24T00:28:00.581Z,17.10
2023-04-24T00:30:27.352Z,17.25
2023-04-24T00:32:53.988Z,17.08
2023-04-24T00:35:20.976Z,16.33
2023-04-24T00:37:47.857Z,17.23
2023-04-24T00:40:14.611Z,16.75
2023-04-24T00:42:42.662Z,16.52
2023-04-24T00:45:09.713Z,16.85
2023-04-24T00:47:36.875Z,16.80
2023-04-24T00:50:06.460Z,16.65
2023-04-24T00:52:33.673Z,16.33
2023-04-24T00:55:00.891Z,16.48
2023-04-24T00:57:27.734Z,16.15
2023-04-24T00:59:54.863Z,16.40
2023-04-24T01:02:23.304Z,15.80
2023-04-24T01:04:53.604Z,15.23
2023-04-24T01:07:23.437Z,15.73
2023-04-24T01:09:52.939Z,15.30
2023-04-24T01:12:20.303Z,15.00
2023-04-24T01:14:47.273Z,15.15
2023-04-24T01:17:16.163Z,15.23
2023-04-24T01:19:45.866Z,15.43
2023-04-24T01:22:15.033Z,15.98
2023-04-24T01:24:42.727Z,15.35
2023-04-24T01:27:11.168Z,15.80
2023-04-24T01:29:38.220Z,16.55
2023-04-24T01:32:06.231Z,16.05
2023-04-24T01:34:33.632Z,16.20
2023-04-24T01:37:00.684Z,17.25
2023-04-24T01:39:29.317Z,16.20
2023-04-24T01:41:56.672Z,16.48
2023-04-24T01:44:23.825Z,16.38
2023-04-24T01:46:50.591Z,16.90
2023-04-24T01:49:17.451Z,16.90
2023-04-24T01:51:45.665Z,16.92
2023-04-24T01:54:12.493Z,16.48
2023-04-24T01:56:45.660Z,16.40
2023-04-24T01:59:13.152Z,16.00
2023-04-24T02:01:40.574Z,15.85
2023-04-24T02:04:08.504Z,16.27
2023-04-24T02:06:36.122Z,15.70
2023-04-24T02:09:04.062Z,15.38
2023-04-24T02:11:30.928Z,15.13
2023-04-24T02:13:58.138Z,14.80
2023-04-24T02:16:24.845Z,14.63
2023-04-24T02:18:51.556Z,14.50
2023-04-24T02:21:18.338Z,15.30
2023-04-24T02:23:45.132Z,14.88
2023-04-24T02:26:13.656Z,14.43
2023-04-24T02:28:40.724Z,14.77
2023-04-24T02:31:07.750Z,14.80
2023-04-24T02:33:34.419Z,14.30
2023-04-24T02:36:01.196Z,14.40
2023-04-24T02:38:27.858Z,14.52
2023-04-24T02:40:54.692Z,13.93
2023-04-24T02:43:21.423Z,14.02
2023-04-24T02:45:48.143Z,14.23
2023-04-24T02:48:14.835Z,13.60
2023-04-24T02:50:41.666Z,13.82
2023-04-24T02:53:08.326Z,13.55
2023-04-24T02:55:35.253Z,13.55
2023-04-24T02:58:02.014Z,13.25
2023-04-24T03:00:28.717Z,13.18
2023-04-24T03:02:55.615Z,12.82
2023-04-24T03:05:22.513Z,12.95
2023-04-24T03:07:49.389Z,13.13
2023-04-24T03:10:16.299Z,12.63
2023-04-24T03:12:42.984Z,12.60
2023-04-24T03:15:10.139Z,12.90
2023-04-24T03:17:37.935Z,12.80
2023-04-24T03:20:07.010Z,13.05
2023-04-24T03:22:34.637Z,13.00
2023-04-24T03:25:02.902Z,13.02
2023-04-24T03:27:29.652Z,13.38
2023-04-24T03:30:01.753Z,13.38
2023-04-24T03:32:49.068Z,12.60
2023-04-24T03:35:22.182Z,12.40
2023-04-24T03:37:49.180Z,12.07
2023-04-24T03:43:03.244Z,11.30
2023-04-24T03:45:30.025Z,11.00
2023-04-24T03:47:57.329Z,10.82
2023-04-24T03:50:24.467Z,10.85
2023-04-24T03:52:51.341Z,11.07
2023-04-24T03:55:29.338Z,10.23
2023-04-24T03:57:55.991Z,9.98
2023-04-24T04:00:23.213Z,10.00
2023-04-24T04:03:02.493Z,9.55
2023-04-24T04:05:29.590Z,9.50
2023-04-24T04:07:57.259Z,9.98
2023-04-24T04:10:24.443Z,10.00
2023-04-24T04:12:51.122Z,9.73
2023-04-24T04:15:17.964Z,9.88
2023-04-24T04:17:44.716Z,10.52
2023-04-24T04:20:12.738Z,10.48
2023-04-24T04:22:42.659Z,10.57
2023-04-24T04:25:14.152Z,9.63
2023-04-24T04:27:42.423Z,10.52
2023-04-24T04:30:11.327Z,9.23
2023-04-24T04:32:47.109Z,8.68
2023-04-24T04:35:14.134Z,7.43
2023-04-24T04:37:41.574Z,6.65
2023-04-24T04:40:20.941Z,7.20
2023-04-24T04:42:56.878Z,4.82
2023-04-24T04:45:25.321Z,5.80
2023-04-24T04:48:15.120Z,6.25
2023-04-24T04:50:42.040Z,5.82
2023-04-24T04:53:08.952Z,5.43
2023-04-24T04:55:38.703Z,5.60
2023-04-24T04:58:11.314Z,6.03
2023-04-24T05:00:38.578Z,6.47
2023-04-24T05:03:21.418Z,7.68
2023-04-24T05:05:53.107Z,9.48
2023-04-24T05:08:27.039Z,9.85
2023-04-24T05:10:55.692Z,11.50
2023-04-24T05:13:35.612Z,12.45
2023-04-24T05:16:08.251Z,11.82
2023-04-24T05:18:35.595Z,12.82
2023-04-24T05:21:02.678Z,13.50
2023-04-24T05:23:29.428Z,14.73
2023-04-24T05:25:57.556Z,16.15
2023-04-24T05:28:24.313Z,16.83
2023-04-24T05:31:03.627Z,17.75
2023-04-24T05:33:30.926Z,15.52
2023-04-24T05:35:57.553Z,16.50
2023-04-24T05:38:24.425Z,16.02
2023-04-24T05:40:51.287Z,19.48
2023-04-24T05:43:17.936Z,20.92
2023-04-24T05:45:44.748Z,24.58
2023-04-24T05:48:11.357Z,25.52
2023-04-24T05:50:37.973Z,27.02
2023-04-24T05:53:05.348Z,27.13
2023-04-24T05:55:34.847Z,28.85
2023-04-24T05:58:02.093Z,27.70
2023-04-24T06:00:30.234Z,26.17
2023-04-24T06:03:04.732Z,27.83
2023-04-24T06:05:32.091Z,26.75
2023-04-24T06:07:59.284Z,27.70
2023-04-24T06:10:30.380Z,27.85
2023-04-24T06:13:01.003Z,27.80
2023-04-24T06:15:31.435Z,28.25
2023-04-24T06:18:06.160Z,28.98
2023-04-24T06:20:33.592Z,28.40
2023-04-24T06:23:02.076Z,29.38
2023-04-24T06:25:29.550Z,29.85
2023-04-24T06:27:56.970Z,28.80
2023-04-24T06:30:24.028Z,28.70
2023-04-24T06:32:54.961Z,29.02
2023-04-24T06:35:22.562Z,29.15
2023-04-24T06:37:49.449Z,28.50
2023-04-24T06:40:16.213Z,27.55
2023-04-24T06:42:43.520Z,28.90
2023-04-24T06:45:10.881Z,30.67
2023-04-24T06:47:37.667Z,31.05
2023-04-24T06:50:20.211Z,32.03
2023-04-24T06:53:16.889Z,32.60
2023-04-24T06:55:52.102Z,33.05
2023-04-24T06:58:18.935Z,31.25
2023-04-24T07:00:46.521Z,31.85
2023-04-24T07:03:13.399Z,30.88
2023-04-24T07:05:40.586Z,29.85
2023-04-24T07:08:07.677Z,30.10
2023-04-24T07:10:36.483Z,31.40
2023-04-24T07:13:03.284Z,29.20
2023-04-24T07:15:30.318Z,29.95
2023-04-24T07:17:57.166Z,29.40
2023-04-24T07:20:23.913Z,28.88
2023-04-24T07:22:50.665Z,30.52
2023-04-24T07:25:17.360Z,31.45
2023-04-24T07:27:44.049Z,30.05
2023-04-24T07:30:11.219Z,29.20
2023-04-24T07:32:38.151Z,28.40
2023-04-24T07:35:05.165Z,27.77
2023-04-24T07:37:31.925Z,27.38
2023-04-24T07:39:58.729Z,27.42
2023-04-24T07:42:25.338Z,26.75
2023-04-24T07:44:52.126Z,25.95
2023-04-24T07:47:18.824Z,26.73
2023-04-24T07:49:45.971Z,27.13
2023-04-24T07:52:12.767Z,27.00
2023-04-24T07:54:39.414Z,25.23
2023-04-24T07:57:07.576Z,24.17
2023-04-24T07:59:34.206Z,24.52
2023-04-24T08:02:02.209Z,24.73
2023-04-24T08:04:29.279Z,25.17
2023-04-24T08:06:56.136Z,23.80
2023-04-24T08:09:22.836Z,24.98
2023-04-24T08:11:49.809Z,23.15
2023-04-24T08:14:16.534Z,24.40
2023-04-24T08:16:43.381Z,24.42
2023-04-24T08:19:10.311Z,25.05
2023-04-24T08:21:37.013Z,25.15
2023-04-24T08:24:06.103Z,25.77
2023-04-24T08:26:33.004Z,25.40
2023-04-24T08:28:59.733Z,27.08
2023-04-24T08:31:27.070Z,27.25
2023-04-24T08:33:53.746Z,24.55
2023-04-24T08:36:20.529Z,25.73
2023-04-24T08:38:47.609Z,24.70
2023-04-24T08:41:16.900Z,24.33
2023-04-24T08:43:44.218Z,25.40
2023-04-24T08:46:13.618Z,26.15
2023-04-24T08:48:41.195Z,24.65
2023-04-24T08:51:09.434Z,24.38
2023-04-24T08:53:36.807Z,33.47
2023-04-24T08:56:04.366Z,39.72
2023-04-24T08:58:34.009Z,35.00
2023-04-24T09:01:01.577Z,24.70
2023-04-24T09:03:29.594Z,24.35
2023-04-24T09:05:58.012Z,25.05
2023-04-24T09:08:27.002Z,23.73
2023-04-24T09:10:54.160Z,25.30
2023-04-24T09:13:21.616Z,25.33
2023-04-24T09:15:48.480Z,24.52
2023-04-24T09:18:15.231Z,28.05
2023-04-24T09:21:01.610Z,30.02
2023-04-24T09:23:29.779Z,27.48
2023-04-24T09:25:57.373Z,27.13
2023-04-24T09:28:42.930Z,27.08
2023-04-24T09:31:22.266Z,26.63
2023-04-24T09:33:57.339Z,25.58
2023-04-24T09:36:29.235Z,25.83
2023-04-24T09:39:02.797Z,25.42
2023-04-24T09:41:29.921Z,25.15
2023-04-24T09:43:57.491Z,24.33
2023-04-24T09:46:32.678Z,24.30
2023-04-24T09:49:10.182Z,24.95
2023-04-24T09:51:38.787Z,24.77
2023-04-24T09:54:14.059Z,24.70
2023-04-24T09:56:45.166Z,23.58
2023-04-24T09:59:12.164Z,24.63
2023-04-24T10:01:39.348Z,23.30
2023-04-24T10:04:06.339Z,22.98
2023-04-24T10:06:36.745Z,23.25
2023-04-24T10:09:04.542Z,23.65
2023-04-24T10:11:31.723Z,23.92
2023-04-24T10:13:59.266Z,22.85
2023-04-24T10:16:28.216Z,22.95
2023-04-24T10:18:56.016Z,23.17
2023-04-24T10:21:23.620Z,23.95
2023-04-24T10:23:50.982Z,22.65
2023-04-24T10:26:18.727Z,22.77
2023-04-24T10:28:46.886Z,23.30
2023-04-24T10:31:14.519Z,23.38
2023-04-24T10:33:43.256Z,23.30
2023-04-24T10:36:15.385Z,23.40
2023-04-24T10:38:44.389Z,23.88
2023-04-24T10:41:20.273Z,23.83
2023-04-24T10:43:49.580Z,21.55
2023-04-24T10:46:22.691Z,19.45
2023-04-24T10:48:56.402Z,17.33
2023-04-24T10:51:24.139Z,16.27
2023-04-24T10:53:52.318Z,17.45
2023-04-24T10:56:19.434Z,18.60
2023-04-24T10:58:52.968Z,19.75
2023-04-24T11:01:28.509Z,20.05
2023-04-24T11:04:00.353Z,19.15
2023-04-24T11:06:37.902Z,18.77
2023-04-24T11:09:08.734Z,18.85
2023-04-24T11:11:38.251Z,18.42
2023-04-24T11:14:07.445Z,17.20
2023-04-24T11:16:54.894Z,17.60
2023-04-24T11:19:29.612Z,19.00
2023-04-24T11:22:04.557Z,19.98
2023-04-24T11:24:40.298Z,18.85
2023-04-24T11:27:21.642Z,19.30
2023-04-24T11:29:57.858Z,19.73
2023-04-24T11:32:31.615Z,19.52
2023-04-24T11:35:06.175Z,19.17
2023-04-24T11:37:41.142Z,17.10
2023-04-24T11:40:12.674Z,14.63
2023-04-24T11:42:41.889Z,14.18
2023-04-24T11:45:11.175Z,12.70
2023-04-24T11:47:38.315Z,10.57
2023-04-24T11:50:09.122Z,9.40
2023-04-24T11:52:40.781Z,7.80
2023-04-24T11:55:17.400Z,7.15
2023-04-24T11:57:47.972Z,7.05
2023-04-24T12:00:22.546Z,8.90
2023-04-24T12:02:51.070Z,7.60
2023-04-24T12:05:36.175Z,7.72
2023-04-24T12:08:03.051Z,6.07
2023-04-24T12:10:31.051Z,7.30
2023-04-24T12:12:59.102Z,7.15
2023-04-24T12:15:26.571Z,6.97
2023-04-24T12:17:54.382Z,5.07
2023-04-24T12:20:31.944Z,5.22
2023-04-24T12:23:00.208Z,5.53
2023-04-24T12:25:32.176Z,5.82
2023-04-24T12:28:04.802Z,4.10
2023-04-24T12:30:39.197Z,4.25
2023-04-24T12:33:06.049Z,4.43
2023-04-24T12:35:36.361Z,5.40
2023-04-24T12:38:27.135Z,5.88
2023-04-24T12:41:05.302Z,5.28
2023-04-24T12:43:32.271Z,5.90
2023-04-24T12:46:00.003Z,5.22
2023-04-24T12:48:28.164Z,4.85
2023-04-24T12:50:55.571Z,4.70
2023-04-24T12:53:22.262Z,5.97
2023-04-24T12:55:53.614Z,5.85
2023-04-24T12:58:21.241Z,6.13
2023-04-24T13:00:48.518Z,5.50
2023-04-24T13:03:16.003Z,6.20
2023-04-24T13:05:43.852Z,6.55
2023-04-24T13:08:10.719Z,7.70
2023-04-24T13:10:37.542Z,8.07
2023-04-24T13:13:04.493Z,8.10
2023-04-24T13:15:31.478Z,8.73
2023-04-24T13:17:58.156Z,8.98
2023-04-24T13:20:24.884Z,9.30
2023-04-24T13:22:51.882Z,11.82
2023-04-24T13:25:19.058Z,11.85
2023-04-24T13:27:46.180Z,12.30
2023-04-24T13:30:13.552Z,11.20
2023-04-24T13:32:40.345Z,10.98
2023-04-24T13:35:07.580Z,10.48
2023-04-24T13:37:34.286Z,10.05
2023-04-24T13:40:01.010Z,10.10
2023-04-24T13:42:30.773Z,11.27
2023-04-24T13:44:57.441Z,10.57
2023-04-24T13:47:24.096Z,12.82
2023-04-24T13:49:51.082Z,10.82
2023-04-24T13:52:17.841Z,11.27
2023-04-24T13:54:44.708Z,12.52
2023-04-24T13:57:11.813Z,13.25
2023-04-24T13:59:39.007Z,13.60
2023-04-24T14:02:06.200Z,12.38
2023-04-24T14:04:33.635Z,15.95
2023-04-24T14:07:00.473Z,14.95
2023-04-24T14:09:27.103Z,17.13
2023-04-24T14:11:53.837Z,16.98
2023-04-24T14:14:20.454Z,20.75
2023-04-24T14:16:47.120Z,20.25
2023-04-24T14:19:13.739Z,19.70
2023-04-24T14:21:40.970Z,22.67
2023-04-24T14:24:07.733Z,21.20
2023-04-24T14:26:34.450Z,20.63
2023-04-24T14:29:11.626Z,24.88
2023-04-24T14:31:41.436Z,26.10
2023-04-24T14:34:08.256Z,24.70
2023-04-24T14:36:35.082Z,23.88
2023-04-24T14:39:06.497Z,27.48
2023-04-24T14:41:36.408Z,24.77
2023-04-24T14:44:04.169Z,28.05
2023-04-24T14:46:31.606Z,25.42
2023-04-24T14:48:59.031Z,23.27
2023-04-24T14:51:26.444Z,22.65
2023-04-24T14:53:53.351Z,22.48
2023-04-24T14:56:23.656Z,22.98
2023-04-24T14:58:50.297Z,20.92
2023-04-24T15:01:18.128Z,19.05
2023-04-24T15:03:45.668Z,14.95
2023-04-24T15:06:16.182Z,14.32
2023-04-24T15:08:43.464Z,15.95
2023-04-24T15:11:13.352Z,13.75
2023-04-24T15:13:40.071Z,14.18
2023-04-24T15:16:06.815Z,14.38
2023-04-24T15:18:33.955Z,13.80
2023-04-24T15:21:00.941Z,14.05
2023-04-24T15:23:27.786Z,13.93
2023-04-24T15:25:54.873Z,14.80
2023-04-24T15:28:22.606Z,16.38
2023-04-24T15:30:49.277Z,16.25
2023-04-24T15:33:16.096Z,18.40
2023-04-24T15:35:42.825Z,16.42
2023-04-24T15:38:09.611Z,17.40
2023-04-24T15:40:36.329Z,15.80
2023-04-24T15:43:03.332Z,17.40
2023-04-24T15:45:31.669Z,16.00
2023-04-24T15:47:58.400Z,16.35
2023-04-24T15:50:25.277Z,17.17
2023-04-24T15:52:51.925Z,16.40
2023-04-24T15:55:18.548Z,16.45
2023-04-24T15:57:45.222Z,17.33
2023-04-24T16:00:12.652Z,18.75
2023-04-24T16:02:40.556Z,18.00
2023-04-24T16:05:08.655Z,14.95
2023-04-24T16:07:36.127Z,15.98
2023-04-24T16:10:02.861Z,15.52
2023-04-24T16:12:29.678Z,16.88
2023-04-24T16:14:56.668Z,17.23
2023-04-24T16:17:23.672Z,15.90
2023-04-24T16:19:50.493Z,16.92
2023-04-24T16:22:17.262Z,16.60
2023-04-24T16:24:44.522Z,14.95
2023-04-24T16:27:11.230Z,15.85
2023-04-24T16:29:37.927Z,18.10
2023-04-24T16:32:05.051Z,15.95
2023-04-24T16:34:32.577Z,15.38
2023-04-24T16:36:59.243Z,15.10
2023-04-24T16:39:26.911Z,12.88
2023-04-24T16:41:55.198Z,13.75
2023-04-24T16:44:22.756Z,15.07
2023-04-24T16:46:49.507Z,14.65
2023-04-24T16:49:23.515Z,15.10
2023-04-24T16:51:50.728Z,14.80
2023-04-24T16:54:17.397Z,17.10
2023-04-24T16:56:44.069Z,14.50
2023-04-24T16:59:10.756Z,13.73
2023-04-24T17:01:37.359Z,14.95
2023-04-24T17:04:04.730Z,17.13
2023-04-24T17:06:31.483Z,15.57
2023-04-24T17:09:00.201Z,17.08
2023-04-24T17:11:29.247Z,17.23
2023-04-24T17:13:59.379Z,17.60
2023-04-24T17:16:26.217Z,16.83
2023-04-24T17:18:52.931Z,17.25
2023-04-24T17:21:19.587Z,16.58
2023-04-24T17:23:46.217Z,14.10
2023-04-24T17:26:12.845Z,16.98
2023-04-24T17:28:39.525Z,15.80
2023-04-24T17:31:06.512Z,17.10
2023-04-24T17:33:33.234Z,16.63
2023-04-24T17:36:03.186Z,15.00
2023-04-24T17:38:30.500Z,15.68
2023-04-24T17:40:58.148Z,15.88
2023-04-24T17:43:24.785Z,16.13
2023-04-24T17:45:55.852Z,15.40
2023-04-24T17:48:22.621Z,15.88
2023-04-24T17:50:49.743Z,15.13
2023-04-24T17:53:16.463Z,15.57
2023-04-24T17:55:49.035Z,15.05
2023-04-24T17:58:15.765Z,14.68
2023-04-24T18:00:42.697Z,13.27
2023-04-24T18:03:10.397Z,11.75
2023-04-24T18:05:38.826Z,12.75
2023-04-24T18:08:06.267Z,12.82
2023-04-24T18:10:36.937Z,12.27
2023-04-24T18:13:04.737Z,12.98
2023-04-24T18:15:31.768Z,13.52
2023-04-24T18:17:58.510Z,13.60
2023-04-24T18:20:25.249Z,14.23
2023-04-24T18:22:52.337Z,15.93
2023-04-24T18:25:26.057Z,13.68
2023-04-24T18:27:54.507Z,13.95
2023-04-24T18:30:21.874Z,13.40
2023-04-24T18:32:50.075Z,13.82
2023-04-24T18:35:17.406Z,15.10
2023-04-24T18:37:45.527Z,14.50
2023-04-24T18:40:13.509Z,13.88
2023-04-24T18:42:40.512Z,15.48
2023-04-24T18:45:08.152Z,13.45
2023-04-24T18:47:34.919Z,13.07
2023-04-24T18:50:01.723Z,12.98
2023-04-24T18:52:28.384Z,14.32
2023-04-24T18:54:55.560Z,15.20
2023-04-24T18:57:22.277Z,14.52
2023-04-24T18:59:49.158Z,14.90
2023-04-24T19:02:16.245Z,15.10
2023-04-24T19:04:42.988Z,14.85
2023-04-24T19:07:09.638Z,17.08
2023-04-24T19:09:36.365Z,14.30
2023-04-24T19:12:03.309Z,15.80
2023-04-24T19:14:30.076Z,16.08
2023-04-24T19:16:56.745Z,16.73
2023-04-24T19:19:25.805Z,15.20
2023-04-24T19:21:52.501Z,14.68
2023-04-24T19:24:19.507Z,15.68
2023-04-24T19:26:46.230Z,15.20
2023-04-24T19:29:13.227Z,15.48
2023-04-24T19:31:40.091Z,15.98
2023-04-24T19:34:06.854Z,15.77
2023-04-24T19:36:33.717Z,16.38
2023-04-24T19:39:01.104Z,16.98
2023-04-24T19:41:27.812Z,16.30
2023-04-24T19:43:54.455Z,16.50
2023-04-24T19:46:21.160Z,16.95
2023-04-24T19:48:48.196Z,15.30
2023-04-24T19:51:15.928Z,15.05
2023-04-24T19:53:43.372Z,16.60
2023-04-24T19:56:10.382Z,16.45
2023-04-24T19:58:37.176Z,15.93
2023-04-24T20:01:05.774Z,15.90
2023-04-24T20:03:34.332Z,16.50
2023-04-24T20:06:01.798Z,17.42
2023-04-24T20:08:28.561Z,16.65
2023-04-24T20:10:57.477Z,16.65
2023-04-24T20:13:27.425Z,17.17
2023-04-24T20:15:55.190Z,16.95
2023-04-24T20:18:22.131Z,16.75
2023-04-24T20:20:49.152Z,15.93
2023-04-24T20:23:15.780Z,17.08
2023-04-24T20:25:42.405Z,16.77
2023-04-24T20:28:09.010Z,16.15
2023-04-24T20:30:35.701Z,15.35
2023-04-24T20:33:02.404Z,15.98
2023-04-24T20:35:29.110Z,16.40
2023-04-24T20:37:55.807Z,16.95
2023-04-24T20:40:23.577Z,16.90
2023-04-24T20:42:50.405Z,17.23
2023-04-24T20:45:17.930Z,18.10
2023-04-24T20:47:44.630Z,17.30
2023-04-24T20:50:11.938Z,16.92
2023-04-24T20:52:38.604Z,16.42
2023-04-24T20:55:06.666Z,17.15
2023-04-24T20:57:33.437Z,17.33
2023-04-24T21:00:00.210Z,17.08
2023-04-24T21:02:27.049Z,16.63
2023-04-24T21:04:53.696Z,16.50
2023-04-24T21:07:20.536Z,17.13
2023-04-24T21:09:47.229Z,16.20
2023-04-24T21:12:13.872Z,16.33
2023-04-24T21:14:40.973Z,15.80
2023-04-24T21:17:07.595Z,17.75
2023-04-24T21:19:34.242Z,16.73
2023-04-24T21:22:00.931Z,16.35
2023-04-24T21:24:27.627Z,16.85
2023-04-24T21:26:54.353Z,16.58
2023-04-24T21:29:21.429Z,16.48
2023-04-24T21:31:48.154Z,17.20
2023-04-24T21:34:15.182Z,15.18
2023-04-24T21:36:41.924Z,16.95
2023-04-24T21:39:08.554Z,18.48
2023-04-24T21:41:35.457Z,16.23
2023-04-24T21:44:02.481Z,16.88
2023-04-24T21:46:29.191Z,17.85
2023-04-24T21:48:55.880Z,19.20
2023-04-24T21:51:22.599Z,18.15
2023-04-24T21:53:49.472Z,19.00
2023-04-24T21:56:16.328Z,21.00
2023-04-24T21:58:43.150Z,18.35
2023-04-24T22:01:09.823Z,17.73
2023-04-24T22:03:36.628Z,18.80
2023-04-24T22:06:03.517Z,20.42
2023-04-24T22:08:30.228Z,19.13
2023-04-24T22:10:56.898Z,18.60
2023-04-24T22:13:23.819Z,20.08
2023-04-24T22:15:50.906Z,18.85
2023-04-24T22:18:18.695Z,19.17
2023-04-24T22:20:46.394Z,19.25
2023-04-24T22:23:13.224Z,19.08
2023-04-24T22:25:39.855Z,19.52
2023-04-24T22:28:06.682Z,18.83
2023-04-24T22:30:33.329Z,21.92
2023-04-24T22:33:00.077Z,21.63
2023-04-24T22:35:26.840Z,21.95
2023-04-24T22:37:56.878Z,20.80
2023-04-24T22:40:24.807Z,20.25
2023-04-24T22:42:51.647Z,19.65
2023-04-24T22:45:18.466Z,21.55
2023-04-24T22:47:45.089Z,17.55
2023-04-24T22:50:11.753Z,18.48
2023-04-24T22:52:38.464Z,19.10
2023-04-24T22:55:05.429Z,17.95
2023-04-24T22:57:32.167Z,19.65
2023-04-24T22:59:59.134Z,18.75
2023-04-24T23:02:25.911Z,18.55
2023-04-24T23:04:54.156Z,18.75
2023-04-24T23:07:20.909Z,18.67
2023-04-24T23:09:47.495Z,19.08
2023-04-24T23:12:14.124Z,19.42
2023-04-24T23:14:40.732Z,19.75
2023-04-24T23:17:07.411Z,18.83
2023-04-24T23:19:34.042Z,18.13
2023-04-24T23:22:00.849Z,18.95
2023-04-24T23:24:27.773Z,17.80
2023-04-24T23:26:54.427Z,18.55
2023-04-24T23:29:23.001Z,20.50
2023-04-24T23:31:49.824Z,18.23
2023-04-24T23:34:18.616Z,18.80
2023-04-24T23:36:48.383Z,20.02
2023-04-24T23:39:15.316Z,18.98
2023-04-24T23:41:44.348Z,19.38
2023-04-24T23:44:11.760Z,19.30
2023-04-24T23:46:38.670Z,18.90
2023-04-24T23:49:05.292Z,19.27
2023-04-24T23:51:32.199Z,19.85
2023-04-24T23:53:59.102Z,18.27
2023-04-24T23:56:26.633Z,20.08
2023-04-24T23:58:53.604Z,20.15
